createdAt,value
2018-01-22T00:00:41.124Z,0.60
2018-01-22T00:03:10.017Z,1.00
2018-01-22T00:05:38.086Z,0.80
2018-01-22T00:08:06.163Z,0.77
2018-01-22T00:10:34.104Z,0.60
2018-01-22T00:13:02.088Z,0.83
2018-01-22T00:15:30.171Z,0.93
2018-01-22T00:17:58.242Z,0.97
2018-01-22T00:20:26.894Z,0.93
2018-01-22T00:22:55.339Z,0.53
2018-01-22T00:25:23.471Z,0.87
2018-01-22T00:27:51.560Z,0.80
2018-01-22T00:30:19.626Z,0.90
2018-01-22T00:32:47.698Z,0.50
2018-01-22T00:35:15.512Z,0.97
2018-01-22T00:37:43.479Z,0.77
2018-01-22T00:40:11.653Z,0.40
2018-01-22T00:42:39.538Z,0.70
2018-01-22T00:45:09.838Z,0.70
2018-01-22T00:47:37.870Z,0.80
2018-01-22T00:50:06.338Z,0.83
2018-01-22T00:52:34.205Z,0.80
2018-01-22T00:55:02.293Z,0.80
2018-01-22T00:57:30.362Z,0.80
2018-01-22T00:59:59.202Z,0.93
2018-01-22T01:02:28.011Z,1.07
2018-01-22T01:04:55.807Z,0.67
2018-01-22T01:07:23.898Z,0.40
2018-01-22T01:09:51.801Z,0.43
2018-01-22T01:12:19.613Z,0.77
2018-01-22T01:14:47.431Z,0.40
2018-01-22T01:17:19.206Z,0.77
2018-01-22T01:19:49.767Z,0.90
2018-01-22T01:22:24.394Z,0.70
2018-01-22T01:24:55.750Z,0.77
2018-01-22T01:27:32.945Z,0.67
2018-01-22T01:30:01.683Z,0.53
2018-01-22T01:32:30.774Z,0.37
2018-01-22T01:35:03.720Z,0.80
2018-01-22T01:38:14.800Z,0.57
2018-01-22T01:40:51.448Z,0.63
2018-01-22T01:43:29.308Z,0.90
2018-01-22T01:46:11.297Z,0.93
2018-01-22T03:58:02.142Z,1.57
2018-01-22T04:03:25.913Z,1.60
2018-01-22T04:06:11.527Z,1.93
2018-01-22T04:12:24.851Z,1.70
2018-01-22T04:15:05.848Z,1.53
2018-01-22T04:17:35.960Z,2.43
2018-01-22T04:20:08.253Z,3.00
2018-01-22T04:23:20.496Z,1.87
2018-01-22T04:25:55.912Z,2.10
2018-01-22T04:28:39.202Z,2.20
2018-01-22T04:31:16.291Z,3.00
2018-01-22T04:36:47.773Z,2.40
2018-01-22T04:39:33.334Z,2.00
2018-01-22T04:42:04.495Z,2.90
2018-01-22T04:44:49.851Z,2.40
2018-01-22T04:47:36.223Z,2.57
2018-01-22T04:50:27.443Z,2.67
2018-01-22T04:53:15.820Z,2.30
2018-01-22T04:55:45.326Z,2.23
2018-01-22T04:58:19.727Z,3.10
2018-01-22T05:00:49.027Z,2.57
2018-01-22T05:03:19.793Z,3.37
2018-01-22T05:05:52.814Z,3.03
2018-01-22T05:08:24.578Z,4.03
2018-01-22T05:10:57.224Z,3.90
2018-01-22T05:13:27.896Z,3.50
2018-01-22T05:15:58.305Z,3.83
2018-01-22T05:18:28.328Z,5.93
2018-01-22T05:21:01.540Z,6.33
2018-01-22T05:23:32.748Z,6.03
2018-01-22T05:26:02.571Z,5.23
2018-01-22T05:28:35.366Z,5.70
2018-01-22T05:31:04.349Z,5.20
2018-01-22T05:33:32.041Z,5.43
2018-01-22T05:36:00.787Z,4.90
2018-01-22T05:38:29.194Z,5.90
2018-01-22T05:41:02.068Z,5.80
2018-01-22T05:43:30.542Z,5.57
2018-01-22T05:45:58.260Z,5.73
2018-01-22T05:48:28.026Z,4.83
2018-01-22T05:50:56.892Z,5.47
2018-01-22T05:53:24.619Z,4.70
2018-01-22T05:55:52.464Z,5.10
2018-01-22T05:58:20.227Z,3.87
2018-01-22T06:00:48.864Z,4.10
2018-01-22T06:03:17.778Z,5.57
2018-01-22T06:05:45.519Z,4.63
2018-01-22T06:08:13.264Z,4.70
2018-01-22T06:10:41.098Z,6.27
2018-01-22T06:13:09.632Z,5.63
2018-01-22T06:15:40.958Z,5.10
2018-01-22T06:18:08.762Z,5.10
2018-01-22T06:20:36.549Z,4.63
2018-01-22T06:23:04.235Z,5.10
2018-01-22T06:25:32.055Z,5.03
2018-01-22T06:27:59.743Z,4.83
2018-01-22T06:30:27.491Z,4.57
2018-01-22T06:32:55.233Z,4.67
2018-01-22T06:35:22.958Z,4.70
2018-01-22T06:37:50.774Z,4.10
2018-01-22T06:40:19.177Z,7.33
2018-01-22T06:42:47.010Z,7.07
2018-01-22T06:45:14.759Z,4.20
2018-01-22T06:47:42.427Z,3.50
2018-01-22T06:50:10.143Z,3.07
2018-01-22T06:52:37.899Z,2.03
2018-01-22T06:55:05.651Z,1.27
2018-01-22T06:57:34.227Z,1.37
2018-01-22T07:00:01.947Z,0.90
2018-01-22T07:02:29.617Z,0.50
2018-01-22T07:04:58.622Z,0.67
2018-01-22T07:07:26.315Z,0.70
2018-01-22T07:09:54.096Z,1.00
2018-01-22T07:12:22.604Z,2.00
2018-01-22T07:14:50.339Z,9.73
2018-01-22T07:17:18.186Z,13.20
2018-01-22T07:19:46.830Z,6.67
2018-01-22T07:22:14.626Z,6.87
2018-01-22T07:24:42.313Z,7.83
2018-01-22T07:27:10.019Z,6.10
2018-01-22T07:29:39.066Z,5.63
2018-01-22T07:32:06.870Z,6.37
2018-01-22T07:34:34.649Z,6.70
2018-01-22T07:37:02.400Z,5.67
2018-01-22T07:39:30.403Z,5.23
2018-01-22T07:41:58.204Z,7.43
2018-01-22T07:44:27.122Z,8.23
2018-01-22T07:46:54.817Z,6.40
2018-01-22T07:49:22.612Z,3.47
2018-01-22T07:51:51.301Z,1.67
2018-01-22T07:54:19.033Z,1.33
2018-01-22T07:56:46.771Z,1.00
2018-01-22T07:59:14.536Z,2.03
2018-01-22T08:01:42.251Z,0.80
2018-01-22T08:04:10.051Z,2.80
2018-01-22T08:06:37.765Z,1.10
2018-01-22T08:09:06.157Z,1.13
2018-01-22T08:11:33.916Z,0.93
2018-01-22T08:14:01.626Z,0.70
2018-01-22T08:16:30.889Z,0.73
2018-01-22T08:18:58.594Z,0.70
2018-01-22T08:21:26.370Z,1.40
2018-01-22T08:23:54.066Z,1.33
2018-01-22T08:26:21.766Z,1.97
2018-01-22T08:28:49.548Z,1.80
2018-01-22T08:31:17.364Z,1.70
2018-01-22T08:33:45.145Z,2.00
2018-01-22T08:36:12.916Z,2.67
2018-01-22T08:38:40.828Z,4.37
2018-01-22T08:41:08.543Z,5.43
2018-01-22T08:43:36.915Z,6.03
2018-01-22T08:46:05.475Z,5.60
2018-01-22T08:48:33.242Z,5.60
2018-01-22T08:51:01.005Z,5.47
2018-01-22T08:53:28.774Z,4.53
2018-01-22T08:55:56.539Z,4.17
2018-01-22T08:58:24.281Z,4.27
2018-01-22T09:00:52.093Z,3.80
2018-01-22T09:03:19.817Z,3.87
2018-01-22T09:05:47.503Z,4.00
2018-01-22T09:08:15.307Z,5.90
2018-01-22T09:10:43.045Z,4.50
2018-01-22T09:13:10.870Z,4.67
2018-01-22T09:15:38.644Z,5.40
2018-01-22T09:18:07.183Z,5.70
2018-01-22T09:20:34.950Z,5.17
2018-01-22T09:23:02.672Z,6.93
2018-01-22T09:25:30.422Z,4.80
2018-01-22T09:27:58.165Z,4.60
2018-01-22T09:30:25.985Z,4.43
2018-01-22T09:32:53.719Z,4.47
2018-01-22T09:35:21.514Z,5.53
2018-01-22T09:37:49.265Z,5.20
2018-01-22T09:40:16.966Z,4.10
2018-01-22T09:42:44.703Z,10.57
2018-01-22T09:45:12.382Z,9.63
2018-01-22T09:47:40.951Z,9.53
2018-01-22T09:50:08.821Z,5.60
2018-01-22T09:52:36.826Z,5.40
2018-01-22T09:55:04.618Z,5.53
2018-01-22T09:57:32.416Z,6.93
2018-01-22T10:00:00.306Z,5.23
2018-01-22T10:02:28.004Z,7.13
2018-01-22T10:04:55.819Z,6.87
2018-01-22T10:07:23.553Z,9.10
2018-01-22T10:09:51.901Z,6.93
2018-01-22T10:12:19.648Z,6.00
2018-01-22T10:14:47.397Z,4.77
2018-01-22T10:17:15.126Z,4.70
2018-01-22T10:19:42.818Z,4.37
2018-01-22T10:22:10.556Z,4.20
2018-01-22T10:24:38.405Z,7.20
2018-01-22T10:27:06.122Z,7.93
2018-01-22T10:29:33.882Z,7.90
2018-01-22T10:32:01.562Z,6.47
2018-01-22T10:34:29.291Z,6.10
2018-01-22T10:36:56.968Z,6.10
2018-01-22T10:39:24.733Z,6.13
2018-01-22T10:41:52.451Z,5.93
2018-01-22T10:44:20.255Z,5.10
2018-01-22T10:46:47.948Z,3.70
2018-01-22T10:49:15.727Z,4.20
2018-01-22T10:51:43.424Z,4.63
2018-01-22T10:54:12.032Z,3.30
2018-01-22T10:56:39.728Z,4.17
2018-01-22T10:59:07.419Z,4.20
2018-01-22T11:01:35.154Z,4.80
2018-01-22T11:04:02.930Z,4.07
2018-01-22T11:06:30.667Z,4.10
2018-01-22T11:08:58.391Z,5.37
2018-01-22T11:11:27.318Z,3.97
2018-01-22T11:13:55.080Z,3.17
2018-01-22T11:16:22.834Z,4.17
2018-01-22T11:18:50.538Z,4.00
2018-01-22T11:21:18.267Z,4.97
2018-01-22T11:23:45.964Z,4.27
2018-01-22T11:26:13.702Z,4.20
2018-01-22T11:28:41.499Z,3.53
2018-01-22T11:31:09.291Z,3.80
2018-01-22T11:33:36.987Z,4.50
2018-01-22T11:36:04.726Z,23.70
2018-01-22T11:38:32.467Z,5.83
2018-01-22T11:41:00.191Z,2.40
2018-01-22T11:43:27.968Z,3.00
2018-01-22T11:45:55.720Z,4.43
2018-01-22T11:48:23.474Z,4.00
2018-01-22T11:50:51.550Z,3.73
2018-01-22T11:53:19.256Z,4.10
2018-01-22T11:55:47.000Z,3.53
2018-01-22T11:58:14.854Z,4.33
2018-01-22T12:00:42.911Z,4.17
2018-01-22T12:03:10.718Z,3.40
2018-01-22T12:05:38.462Z,5.90
2018-01-22T12:08:06.408Z,2.93
2018-01-22T12:10:34.187Z,4.00
2018-01-22T12:13:01.980Z,5.70
2018-01-22T12:15:29.702Z,4.60
2018-01-22T12:17:57.458Z,3.60
2018-01-22T12:20:26.361Z,3.77
2018-01-22T12:22:54.266Z,4.70
2018-01-22T12:25:22.004Z,3.70
2018-01-22T12:27:49.729Z,3.37
2018-01-22T12:30:17.527Z,4.27
2018-01-22T12:32:45.253Z,3.93
2018-01-22T12:35:13.010Z,3.90
2018-01-22T12:37:40.784Z,3.80
2018-01-22T12:40:08.509Z,3.30
2018-01-22T12:42:36.279Z,5.10
2018-01-22T12:45:04.003Z,4.00
2018-01-22T12:47:31.779Z,3.97
2018-01-22T12:49:59.570Z,4.97
2018-01-22T12:52:27.327Z,4.27
2018-01-22T12:54:55.064Z,3.23
2018-01-22T12:57:22.902Z,5.10
2018-01-22T12:59:50.681Z,3.37
2018-01-22T13:02:18.412Z,4.60
2018-01-22T13:04:46.178Z,4.13
2018-01-22T13:07:13.962Z,3.80
2018-01-22T13:09:41.695Z,4.40
2018-01-22T13:12:09.393Z,3.53
2018-01-22T13:14:37.140Z,3.80
2018-01-22T13:17:04.884Z,3.73
2018-01-22T13:19:32.778Z,3.43
2018-01-22T13:22:00.500Z,3.47
2018-01-22T13:24:28.211Z,27.73
2018-01-22T13:26:55.992Z,12.53
2018-01-22T13:29:23.769Z,6.03
2018-01-22T13:31:51.493Z,4.43
2018-01-22T13:34:19.277Z,5.13
2018-01-22T13:36:46.976Z,5.27
2018-01-22T13:39:14.740Z,4.90
2018-01-22T13:41:42.490Z,3.83
2018-01-22T13:44:10.232Z,4.13
2018-01-22T13:46:37.979Z,3.30
2018-01-22T13:49:05.813Z,3.90
2018-01-22T13:51:33.643Z,4.13
2018-01-22T13:54:01.341Z,3.80
2018-01-22T13:56:29.128Z,3.23
2018-01-22T13:58:56.891Z,3.00
2018-01-22T14:01:24.603Z,3.30
2018-01-22T14:03:52.503Z,2.80
2018-01-22T14:06:20.236Z,2.90
2018-01-22T14:08:48.009Z,2.70
2018-01-22T14:11:15.766Z,3.87
2018-01-22T14:13:43.708Z,4.00
2018-01-22T14:16:11.454Z,4.90
2018-01-22T14:18:39.261Z,4.20
2018-01-22T14:21:07.039Z,4.33
2018-01-22T14:23:34.825Z,6.10
2018-01-22T14:26:02.630Z,6.53
2018-01-22T14:28:30.432Z,6.17
2018-01-22T14:30:58.293Z,5.30
2018-01-22T14:33:26.045Z,5.70
2018-01-22T14:35:53.749Z,5.20
2018-01-22T14:38:21.574Z,4.67
2018-01-22T14:40:49.271Z,3.87
2018-01-22T14:43:17.155Z,2.87
2018-01-22T14:45:44.867Z,2.80
2018-01-22T14:48:12.677Z,2.83
2018-01-22T14:50:40.515Z,4.30
2018-01-22T14:53:09.445Z,4.90
2018-01-22T14:55:37.240Z,6.93
2018-01-22T14:58:04.977Z,6.50
2018-01-22T15:00:32.723Z,5.70
2018-01-22T15:03:00.567Z,6.60
2018-01-22T15:05:28.351Z,12.40
2018-01-22T15:07:56.169Z,8.90
2018-01-22T15:10:23.928Z,6.30
2018-01-22T15:12:51.656Z,6.93
2018-01-22T15:15:19.626Z,6.10
2018-01-22T15:17:48.432Z,4.73
2018-01-22T15:20:16.316Z,3.47
2018-01-22T15:22:44.149Z,4.47
2018-01-22T15:25:11.910Z,18.10
2018-01-22T15:27:39.928Z,10.37
2018-01-22T15:30:08.020Z,6.50
2018-01-22T15:32:35.962Z,4.40
2018-01-22T15:35:04.278Z,4.00
2018-01-22T15:37:32.322Z,4.10
2018-01-22T15:40:00.511Z,4.10
2018-01-22T15:42:29.410Z,4.60
2018-01-22T15:44:57.285Z,4.50
2018-01-22T15:47:26.165Z,4.80
2018-01-22T15:49:54.129Z,7.00
2018-01-22T15:52:22.123Z,5.60
2018-01-22T15:54:50.114Z,14.70
2018-01-22T15:57:18.204Z,11.53
2018-01-22T15:59:46.157Z,6.20
2018-01-22T16:02:14.063Z,6.77
2018-01-22T16:04:42.256Z,5.60
2018-01-22T16:07:10.325Z,6.27
2018-01-22T16:09:38.615Z,5.80
2018-01-22T16:12:06.739Z,6.10
2018-01-22T16:14:34.601Z,5.00
2018-01-22T16:17:02.768Z,5.20
2018-01-22T16:19:30.634Z,4.40
2018-01-22T16:21:58.769Z,5.30
2018-01-22T16:24:26.626Z,5.53
2018-01-22T16:26:54.484Z,5.77
2018-01-22T16:29:26.072Z,5.90
2018-01-22T16:31:54.005Z,6.17
2018-01-22T16:34:21.798Z,6.80
2018-01-22T16:36:49.606Z,7.43
2018-01-22T16:39:17.457Z,5.80
2018-01-22T16:41:45.698Z,5.90
2018-01-22T16:44:13.966Z,7.37
2018-01-22T16:46:42.117Z,7.30
2018-01-22T16:49:10.006Z,6.80
2018-01-22T16:51:37.916Z,5.47
2018-01-22T16:54:05.757Z,4.27
2018-01-22T16:56:33.559Z,5.07
2018-01-22T16:59:01.574Z,4.47
2018-01-22T17:01:31.545Z,5.57
2018-01-22T17:03:59.447Z,6.13
2018-01-22T17:06:27.292Z,7.67
2018-01-22T17:08:56.332Z,5.53
2018-01-22T17:11:24.194Z,5.43
2018-01-22T17:13:52.021Z,6.90
2018-01-22T17:16:19.782Z,6.60
2018-01-22T17:18:47.696Z,5.60
2018-01-22T17:21:16.496Z,4.63
2018-01-22T17:23:44.876Z,5.93
2018-01-22T17:26:13.014Z,5.90
2018-01-22T17:28:41.611Z,5.20
2018-01-22T17:31:09.698Z,6.27
2018-01-22T17:33:37.638Z,7.27
2018-01-22T17:36:05.581Z,4.73
2018-01-22T17:38:33.477Z,5.43
2018-01-22T17:41:01.343Z,6.90
2018-01-22T17:43:29.154Z,7.27
2018-01-22T17:45:57.151Z,6.47
2018-01-22T17:48:25.284Z,5.87
2018-01-22T17:50:53.111Z,7.67
2018-01-22T17:53:21.938Z,7.40
2018-01-22T17:55:49.944Z,8.30
2018-01-22T17:58:17.750Z,8.10
2018-01-22T18:00:45.500Z,8.30
2018-01-22T18:03:13.691Z,8.90
2018-01-22T18:05:41.865Z,8.20
2018-01-22T18:08:09.784Z,8.87
2018-01-22T18:10:38.852Z,8.70
2018-01-22T18:13:09.022Z,8.27
2018-01-22T18:15:37.048Z,7.23
2018-01-22T18:18:05.550Z,7.10
2018-01-22T18:20:33.534Z,8.37
2018-01-22T18:23:02.761Z,8.27
2018-01-22T18:25:30.769Z,8.07
2018-01-22T18:27:58.875Z,6.83
2018-01-22T18:30:26.881Z,6.57
2018-01-22T18:32:55.408Z,5.93
2018-01-22T18:35:23.184Z,6.97
2018-01-22T18:37:51.075Z,5.03
2018-01-22T18:40:18.849Z,5.50
2018-01-22T18:42:46.615Z,4.20
2018-01-22T18:45:14.348Z,4.90
2018-01-22T18:47:42.118Z,4.17
2018-01-22T18:50:09.924Z,5.10
2018-01-22T18:52:37.770Z,5.10
2018-01-22T18:55:05.603Z,6.23
2018-01-22T18:57:33.351Z,6.10
2018-01-22T19:00:01.139Z,5.13
2018-01-22T19:02:28.878Z,4.30
2018-01-22T19:04:56.649Z,3.93
2018-01-22T19:07:24.586Z,3.23
2018-01-22T19:09:52.481Z,3.60
2018-01-22T19:12:20.242Z,4.13
2018-01-22T19:14:48.035Z,3.97
2018-01-22T19:17:15.799Z,3.87
2018-01-22T19:19:43.943Z,4.40
2018-01-22T19:22:12.208Z,3.47
2018-01-22T19:24:40.707Z,4.13
2018-01-22T19:27:08.784Z,3.80
2018-01-22T19:29:36.482Z,4.80
2018-01-22T19:32:04.305Z,4.63
2018-01-22T19:34:33.370Z,4.27
2018-01-22T19:37:01.186Z,4.80
2018-01-22T19:39:29.404Z,3.80
2018-01-22T19:41:57.615Z,3.97
2018-01-22T19:44:26.675Z,4.20
2018-01-22T19:46:54.504Z,4.47
2018-01-22T19:49:22.673Z,5.53
2018-01-22T19:51:50.721Z,8.33
2018-01-22T19:54:19.617Z,12.63
2018-01-22T19:56:47.772Z,11.60
2018-01-22T19:59:15.851Z,11.07
2018-01-22T20:01:43.828Z,9.20
2018-01-22T20:04:12.730Z,9.07
2018-01-22T20:06:40.799Z,9.33
2018-01-22T20:09:08.680Z,6.50
2018-01-22T20:11:37.152Z,4.60
2018-01-22T20:14:05.418Z,5.00
2018-01-22T20:16:33.797Z,5.10
2018-01-22T20:19:01.992Z,4.93
2018-01-22T20:21:29.907Z,5.40
2018-01-22T20:23:58.881Z,4.70
2018-01-22T20:26:27.814Z,5.57
2018-01-22T20:28:55.659Z,9.20
2018-01-22T20:31:24.263Z,10.87
2018-01-22T20:33:52.180Z,12.40
2018-01-22T20:36:21.145Z,14.97
2018-01-22T20:38:49.210Z,18.50
2018-01-22T20:41:17.214Z,11.60
2018-01-22T20:43:45.384Z,8.37
2018-01-22T20:46:13.425Z,10.43
2018-01-22T20:48:41.654Z,9.27
2018-01-22T20:51:10.384Z,13.70
2018-01-22T20:53:38.738Z,13.00
2018-01-22T20:56:06.799Z,7.93
2018-01-22T20:58:35.016Z,7.33
2018-01-22T21:01:03.083Z,6.50
2018-01-22T21:03:31.353Z,7.90
2018-01-22T21:06:00.248Z,7.30
2018-01-22T21:08:29.059Z,7.00
2018-01-22T21:10:56.876Z,7.13
2018-01-22T21:13:24.777Z,10.27
2018-01-22T21:15:52.711Z,11.00
2018-01-22T21:18:20.485Z,10.60
2018-01-22T21:20:48.208Z,10.53
2018-01-22T21:23:16.016Z,10.07
2018-01-22T21:25:43.903Z,7.63
2018-01-22T21:28:11.683Z,7.20
2018-01-22T21:30:39.613Z,6.67
2018-01-22T21:33:07.343Z,6.63
2018-01-22T21:35:35.124Z,7.50
2018-01-22T21:38:03.359Z,6.17
2018-01-22T21:40:31.100Z,6.20
2018-01-22T21:42:59.084Z,7.27
2018-01-22T21:45:26.837Z,7.30
2018-01-22T21:47:54.634Z,7.77
2018-01-22T21:50:22.358Z,7.37
2018-01-22T21:52:50.220Z,7.47
2018-01-22T21:55:17.950Z,6.40
2018-01-22T21:57:45.691Z,6.53
2018-01-22T22:00:13.528Z,5.90
2018-01-22T22:02:41.389Z,4.67
2018-01-22T22:05:09.188Z,5.53
2018-01-22T22:07:37.118Z,5.10
2018-01-22T22:10:04.985Z,4.23
2018-01-22T22:12:32.868Z,4.80
2018-01-22T22:15:00.666Z,4.57
2018-01-22T22:17:28.451Z,4.50
2018-01-22T22:19:56.231Z,3.57
2018-01-22T22:22:23.924Z,4.13
2018-01-22T22:24:51.715Z,3.70
2018-01-22T22:27:19.482Z,7.00
2018-01-22T22:29:47.287Z,7.97
2018-01-22T22:32:15.070Z,9.40
2018-01-22T22:34:42.808Z,11.23
2018-01-22T22:37:10.593Z,13.13
2018-01-22T22:39:38.310Z,12.63
2018-01-22T22:42:06.060Z,9.33
2018-01-22T22:44:33.816Z,7.30
2018-01-22T22:47:01.506Z,5.50
2018-01-22T22:49:29.260Z,5.90
2018-01-22T22:51:56.951Z,4.97
2018-01-22T22:54:24.779Z,4.00
2018-01-22T22:56:52.474Z,3.60
2018-01-22T22:59:20.398Z,3.10
2018-01-22T23:01:48.870Z,2.70
2018-01-22T23:04:16.909Z,2.70
2018-01-22T23:06:45.000Z,3.03
2018-01-22T23:09:13.099Z,2.97
2018-01-22T23:11:41.166Z,3.70
2018-01-22T23:14:09.241Z,3.67
2018-01-22T23:16:40.287Z,3.20
2018-01-22T23:19:08.413Z,3.10
2018-01-22T23:21:36.529Z,3.73
2018-01-22T23:24:04.671Z,4.00
2018-01-22T23:26:32.662Z,3.37
2018-01-22T23:29:01.502Z,3.13
2018-01-22T23:31:29.748Z,3.83
2018-01-22T23:33:57.886Z,3.13
2018-01-22T23:36:25.985Z,3.33
2018-01-22T23:38:53.992Z,3.60
2018-01-22T23:41:22.124Z,4.57
2018-01-22T23:43:50.195Z,3.67
2018-01-22T23:46:19.293Z,5.23
2018-01-22T23:48:47.216Z,4.93
2018-01-22T23:51:15.207Z,5.53
2018-01-22T23:53:43.103Z,5.57
2018-01-22T23:56:11.981Z,4.63
2018-01-22T23:58:40.856Z,4.47
